createdAt,value
2019-02-26T00:04:49.091Z,52
2019-02-26T00:10:06.966Z,52
2019-02-26T00:15:05.308Z,52
2019-02-26T00:20:18.363Z,51.9
2019-02-26T00:25:21.401Z,52
2019-02-26T00:30:20.512Z,52
2019-02-26T00:35:29.476Z,51.8
2019-02-26T00:40:43.482Z,51.9
2019-02-26T00:45:41.054Z,51.8
2019-02-26T00:50:46.778Z,51.9
2019-02-26T00:56:03.218Z,51.9
2019-02-26T01:01:00.339Z,52.5
2019-02-26T01:06:10.009Z,51.6
2019-02-26T01:11:15.495Z,51.7
2019-02-26T01:16:21.071Z,51.6
2019-02-26T01:21:37.878Z,52
2019-02-26T01:26:33.596Z,52
2019-02-26T01:31:39.601Z,52
2019-02-26T01:36:50.467Z,52.4
2019-02-26T01:41:58.787Z,52.1
2019-02-26T01:47:04.681Z,52
2019-02-26T01:52:00.666Z,52
2019-02-26T01:57:10.485Z,52
2019-02-26T02:02:27.718Z,52
2019-02-26T02:07:31.248Z,52
2019-02-26T02:12:37.280Z,52
2019-02-26T02:17:40.757Z,52
2019-02-26T02:22:44.385Z,51.9
2019-02-26T02:27:39.733Z,52
2019-02-26T02:32:48.053Z,51.9
2019-02-26T02:37:46.038Z,51.9
2019-02-26T02:42:51.905Z,51.9
2019-02-26T02:48:11.513Z,51.9
2019-02-26T02:53:07.347Z,51.9
2019-02-26T02:58:25.965Z,52
2019-02-26T03:03:21.349Z,51.9
2019-02-26T03:08:26.535Z,52.1
2019-02-26T03:13:31.861Z,52
2019-02-26T03:18:37.096Z,52
2019-02-26T03:23:47.356Z,52
2019-02-26T03:28:53.934Z,52
2019-02-26T03:33:49.232Z,52.1
2019-02-26T03:39:03.683Z,52
2019-02-26T03:44:09.006Z,51.9
2019-02-26T03:49:06.236Z,52
2019-02-26T03:54:11.403Z,51.9
2019-02-26T03:59:16.772Z,51.9
2019-02-26T04:04:33.619Z,51.9
2019-02-26T04:09:29.130Z,51.9
2019-02-26T04:14:34.122Z,51.9
2019-02-26T04:19:43.521Z,51.9
2019-02-26T04:24:40.738Z,51.8
2019-02-26T04:29:51.035Z,51.9
2019-02-26T04:34:48.381Z,51.9
2019-02-26T04:39:54.207Z,51.9
2019-02-26T04:45:09.985Z,50.6
2019-02-26T04:50:10.892Z,50.5
2019-02-26T04:55:06.749Z,50.5
2019-02-26T05:00:13.493Z,49.9
2019-02-26T05:05:18.691Z,49.9
2019-02-26T05:10:34.941Z,49.4
2019-02-26T05:15:35.440Z,49.2
2019-02-26T05:20:50.204Z,49.1
2019-02-26T05:25:47.465Z,49
2019-02-26T05:30:53.932Z,49.2
2019-02-26T05:35:59.241Z,49.3
2019-02-26T05:41:04.271Z,49
2019-02-26T05:46:09.531Z,49.5
2019-02-26T05:51:15.013Z,49.5
2019-02-26T05:56:24.683Z,48.2
2019-02-26T06:01:30.364Z,48.5
2019-02-26T06:06:35.557Z,48.5
2019-02-26T06:11:51.058Z,49.2
2019-02-26T06:16:56.634Z,49.3
2019-02-26T06:21:58.710Z,49.7
2019-02-26T06:26:52.925Z,49.7
2019-02-26T06:31:58.432Z,49.8
2019-02-26T06:37:07.158Z,49.8
2019-02-26T06:42:12.117Z,49.8
2019-02-26T06:47:11.630Z,49.8
2019-02-26T06:52:20.372Z,49.8
2019-02-26T06:57:25.815Z,50.5
2019-02-26T07:02:32.024Z,49.6
2019-02-26T07:07:35.797Z,49.6
2019-02-26T07:12:48.660Z,49.3
2019-02-26T07:17:48.799Z,49.1
2019-02-26T07:22:54.137Z,49.1
2019-02-26T07:28:04.792Z,48.9
2019-02-26T07:33:16.309Z,48.9
2019-02-26T07:38:12.392Z,48.8
2019-02-26T07:43:24.347Z,48.8
2019-02-26T07:48:31.665Z,48
2019-02-26T07:53:28.431Z,47.8
2019-02-26T07:58:43.684Z,46.6
2019-02-26T08:08:49.777Z,46.1
2019-02-26T08:18:56.980Z,45.7
2019-02-26T08:23:55.540Z,45.5
2019-02-26T08:29:09.808Z,45.1
2019-02-26T08:34:06.550Z,45
2019-02-26T08:39:16.798Z,44.5
2019-02-26T08:44:11.778Z,44.5
2019-02-26T08:49:22.924Z,44.3
2019-02-26T08:54:33.198Z,44.2
2019-02-26T08:59:22.262Z,44.2
2019-02-26T09:04:27.669Z,44.1
2019-02-26T09:09:35.677Z,44
2019-02-26T09:14:49.919Z,43.8
2019-02-26T09:19:46.099Z,43.8
2019-02-26T09:25:02.159Z,43.5
2019-02-26T09:29:58.841Z,43.5
2019-02-26T09:35:07.713Z,43.4
2019-02-26T09:40:13.775Z,42.6
2019-02-26T09:45:30.052Z,42.7
2019-02-26T09:50:25.661Z,42.7
2019-02-26T09:55:30.999Z,43.2
2019-02-26T10:05:40.850Z,43.8
2019-02-26T10:10:44.421Z,43.5
2019-02-26T10:20:57.512Z,43.5
2019-02-26T10:26:11.193Z,43.6
2019-02-26T10:31:12.214Z,43.5
2019-02-26T10:36:17.587Z,43.5
2019-02-26T10:41:14.058Z,43.4
2019-02-26T10:46:20.326Z,43.3
2019-02-26T10:51:29.078Z,43.4
2019-02-26T10:56:45.712Z,37.9
2019-02-26T11:01:40.935Z,38.1
2019-02-26T11:06:48.856Z,38.8
2019-02-26T11:12:03.690Z,39
2019-02-26T11:17:01.712Z,38.9
2019-02-26T11:22:07.714Z,38.3
2019-02-26T11:27:13.380Z,38.5
2019-02-26T11:32:19.638Z,38.6
2019-02-26T11:37:32.312Z,40.1
2019-02-26T11:42:30.668Z,40.9
2019-02-26T11:47:44.111Z,41.3
2019-02-26T11:52:39.831Z,41.4
2019-02-26T11:57:51.561Z,42.8
2019-02-26T12:02:47.235Z,42.7
2019-02-26T12:07:59.792Z,43.9
2019-02-26T12:13:03.061Z,44.2
2019-02-26T12:18:00.775Z,44.1
2019-02-26T12:23:18.998Z,43.8
2019-02-26T12:28:16.852Z,43.9
2019-02-26T12:33:22.130Z,43.9
2019-02-26T12:38:27.345Z,44.2
2019-02-26T12:43:46.331Z,44.7
2019-02-26T12:50:43.194Z,44.8
2019-02-26T12:53:52.180Z,44.5
2019-02-26T12:58:56.376Z,45.2
2019-02-26T13:03:57.678Z,45.3
2019-02-26T13:08:53.497Z,45.2
2019-02-26T13:13:59.777Z,45.5
2019-02-26T13:19:07.194Z,45.6
2019-02-26T13:28:21.268Z,45.8
2019-02-26T13:29:36.293Z,45.9
2019-02-26T13:34:41.839Z,45.9
2019-02-26T13:39:48.309Z,46.3
2019-02-26T13:44:53.535Z,46.4
2019-02-26T13:49:58.841Z,46.6
2019-02-26T13:55:04.404Z,46.8
2019-02-26T14:00:09.441Z,47
2019-02-26T14:05:15.715Z,47.6
2019-02-26T14:10:21.132Z,47.6
2019-02-26T14:15:27.081Z,37.2
2019-02-26T14:20:33.016Z,37.1
2019-02-26T14:25:38.734Z,38
2019-02-26T14:30:43.989Z,38.9
2019-02-26T14:35:50.176Z,39.8
2019-02-26T14:40:56.451Z,41.1
2019-02-26T14:46:01.849Z,41.1
2019-02-26T14:51:08.617Z,41.7
2019-02-26T14:56:14.731Z,42.4
2019-02-26T15:01:22.955Z,42.4
2019-02-26T15:06:28.684Z,43
2019-02-26T15:11:34.765Z,43.3
2019-02-26T15:16:41.056Z,43.3
2019-02-26T15:21:46.720Z,43.6
2019-02-26T15:26:52.550Z,44.5
2019-02-26T15:31:59.453Z,44.3
2019-02-26T15:37:05.436Z,44.3
2019-02-26T15:42:11.564Z,44.6
2019-02-26T15:47:17.215Z,44.8
2019-02-26T15:52:25.064Z,45
2019-02-26T15:57:33.017Z,45.1
2019-02-26T16:02:39.605Z,45.2
2019-02-26T16:07:46.030Z,45.2
2019-02-26T16:12:51.190Z,45.4
2019-02-26T16:18:01.982Z,45.4
2019-02-26T16:22:57.726Z,45.6
2019-02-26T16:28:05.419Z,46
2019-02-26T16:33:15.299Z,46.3
2019-02-26T16:38:15.747Z,46.4
2019-02-26T16:43:24.245Z,46.4
2019-02-26T16:48:30.151Z,46.2
2019-02-26T16:53:36.779Z,47.2
2019-02-26T16:58:43.238Z,47.6
2019-02-26T17:03:48.969Z,47.6
2019-02-26T17:08:55.004Z,47.5
2019-02-26T17:19:06.165Z,48.4
2019-02-26T17:24:11.193Z,49.2
2019-02-26T17:29:21.534Z,46.4
2019-02-26T17:34:26.672Z,47.4
2019-02-26T17:39:32.040Z,51
2019-02-26T17:44:37.460Z,45.3
2019-02-26T17:49:43.049Z,46.3
2019-02-26T17:54:50.929Z,46.8
2019-02-26T17:59:56.908Z,46.8
2019-02-26T18:05:04.125Z,47
2019-02-26T18:10:13.565Z,47
2019-02-26T18:15:22.705Z,46.9
2019-02-26T18:20:30.580Z,46.8
2019-02-26T18:25:35.693Z,46.8
2019-02-26T18:30:40.876Z,46.9
2019-02-26T18:35:46.231Z,47
2019-02-26T18:40:51.951Z,47.7
2019-02-26T18:46:01.545Z,48
2019-02-26T18:51:05.695Z,47.9
2019-02-26T18:56:11.461Z,47.7
2019-02-26T19:01:16.900Z,47.8
2019-02-26T19:06:29.313Z,29.8
2019-02-26T19:11:34.995Z,30.1
2019-02-26T19:16:40.005Z,38.1
2019-02-26T19:21:46.334Z,41.6
2019-02-26T19:26:52.136Z,41.6
2019-02-26T19:31:58.221Z,44.9
2019-02-26T19:37:02.497Z,46.2
2019-02-26T19:42:08.087Z,46.7
2019-02-26T19:47:17.114Z,48.6
2019-02-26T19:52:22.820Z,48.5
2019-02-26T19:57:31.885Z,49.5
2019-02-26T20:02:36.467Z,49.3
2019-02-26T20:07:40.986Z,50.6
2019-02-26T20:12:46.860Z,50.6
2019-02-26T20:17:52.208Z,51.3
2019-02-26T20:22:58.604Z,52.3
2019-02-26T20:28:08.647Z,51.5
2019-02-26T20:33:09.513Z,51.5
2019-02-26T20:38:14.671Z,51.1
2019-02-26T20:43:20.098Z,50.8
2019-02-26T20:48:26.097Z,50.6
2019-02-26T20:53:32.763Z,50.4
2019-02-26T20:58:38.356Z,50.4
2019-02-26T21:03:44.115Z,50.3
2019-02-26T21:08:48.609Z,50.3
2019-02-26T21:13:54.538Z,50.3
2019-02-26T21:19:03.792Z,50.3
2019-02-26T21:24:09.301Z,50.2
2019-02-26T21:29:15.196Z,50.2
2019-02-26T21:34:20.689Z,50.3
2019-02-26T21:39:25.967Z,50.7
2019-02-26T21:44:31.493Z,50.2
2019-02-26T21:49:37.035Z,50.3
2019-02-26T21:54:44.693Z,49.6
2019-02-26T21:59:52.738Z,49.1
2019-02-26T22:04:57.452Z,49.2
2019-02-26T22:10:07.003Z,49.7
2019-02-26T22:15:04.247Z,49.8
2019-02-26T22:20:37.292Z,49.8
2019-02-26T22:25:19.374Z,49.8
2019-02-26T22:30:15.217Z,49.8
2019-02-26T22:35:20.515Z,50.1
2019-02-26T22:40:30.846Z,50.6
2019-02-26T22:45:30.620Z,50.8
2019-02-26T22:50:36.617Z,50.8
2019-02-26T22:55:42.579Z,51
2019-02-26T23:00:51.776Z,51.2
2019-02-26T23:06:01.824Z,51.2
2019-02-26T23:11:00.091Z,51.5
2019-02-26T23:16:05.130Z,51.4
2019-02-26T23:21:10.913Z,51.3
2019-02-26T23:26:17.141Z,51.5
2019-02-26T23:31:23.195Z,51.4
2019-02-26T23:36:31.234Z,51.4
2019-02-26T23:41:36.944Z,51.4
2019-02-26T23:46:42.444Z,51.4
2019-02-26T23:51:48.184Z,51.5
2019-02-26T23:56:55.212Z,51.3
